AZA weather

Phoenix-Mesa-Gateway Airport
Phoenix, Arizona, United States

Public forecast

Using degrees Fahrenheit for public forecast. Weather courtesy of forecast.io.

Current aviation weather report (METAR) for Phoenix-Mesa-Gateway Airport

Retrieved 2019/11/22 02:50 UTC (58 minutes ago):

KIWA 220250Z 10006KT 10SM -RA BKN070 BKN150 12/10 A3006 RMK LTG DSNT E

Aviation forecast (TAF) for Phoenix-Mesa-Gateway Airport

Retrieved 2019-11-22 00:42 UTC (3 hours ago):

TAF KIWA 212339Z 2200/2224 26007KT P6SM VCTS FEW040 BKN070CB TEMPO 2200/2202 33010KT FM220200 01005KT P6SM SCT045 BKN080 FM220500 11005KT P6SM SCT050 BKN080 FM222000 30004KT P6SM SCT060 SCT100